KAGC/AGC METAR and TAF weather

Enter ICAO airport designator
Station Type Date Time Source
KAGC METAR 2022/06/28 13:53 UTC NOAA

KAGC 281353Z VRB03KT 10SM CLR 20/09 A3025 RMK AO2 SLP244 T02000094


Station Type Date Time Source
KAGC Decoded METAR 2022/06/28 13:53 UTC NOAA

PITTSBURGH ALLEGHENY CTY., PA, United States (KAGC) 40-21N 079-55W 389M
Jun 28, 2022 - 09:53 AM EDT / 2022.06.28 1353 UTC
Wind: Variable at 3 MPH (3 KT):0
Visibility: 10 mile(s):0
Sky conditions: clear
Temperature: 68.0 F (20.0 C)
Dew Point: 48.9 F (9.4 C)
Relative Humidity: 50%
Pressure (altimeter): 30.25 in. Hg (1024 hPa)
ob: KAGC 281353Z VRB03KT 10SM CLR 20/09 A3025 RMK AO2 SLP244 T02000094
cycle: 14

Station Type Date Time Source
KAGC TAF 2022/06/28 12:22 UTC NOAA

TAF KAGC 281120Z 2812/2912 02004KT P6SM SKC

Example: see airport list